createdAt,value
2018-02-07T00:00:05.259Z,20.17
2018-02-07T00:02:32.752Z,20.87
2018-02-07T00:05:00.264Z,18.70
2018-02-07T00:07:27.806Z,19.27
2018-02-07T00:09:55.365Z,18.60
2018-02-07T00:12:23.767Z,18.27
2018-02-07T00:14:51.231Z,21.30
2018-02-07T00:17:18.809Z,19.60
2018-02-07T00:19:46.292Z,19.10
2018-02-07T00:22:14.757Z,19.20
2018-02-07T00:24:42.609Z,21.10
2018-02-07T00:27:12.577Z,20.67
2018-02-07T00:29:41.015Z,18.77
2018-02-07T00:32:08.475Z,19.20
2018-02-07T00:34:35.943Z,19.53
2018-02-07T00:37:03.403Z,20.10
2018-02-07T00:39:30.860Z,20.53
2018-02-07T00:41:58.315Z,20.17
2018-02-07T00:44:26.062Z,18.60
2018-02-07T00:46:53.504Z,20.13
2018-02-07T00:49:20.968Z,19.90
2018-02-07T00:51:48.455Z,20.13
2018-02-07T00:54:15.908Z,19.87
2018-02-07T00:56:43.347Z,20.77
2018-02-07T00:59:10.844Z,20.17
2018-02-07T01:01:38.290Z,20.27
2018-02-07T01:04:05.747Z,20.03
2018-02-07T01:06:33.220Z,20.60
2018-02-07T01:09:00.663Z,19.30
2018-02-07T01:11:28.146Z,20.00
2018-02-07T01:13:56.399Z,20.20
2018-02-07T01:16:23.874Z,19.60
2018-02-07T01:18:51.331Z,20.63
2018-02-07T01:21:18.773Z,20.83
2018-02-07T01:23:47.026Z,19.47
2018-02-07T01:26:14.504Z,22.07
2018-02-07T01:28:41.964Z,20.80
2018-02-07T01:31:09.433Z,21.10
2018-02-07T01:33:36.891Z,19.80
2018-02-07T01:36:04.322Z,21.20
2018-02-07T01:38:31.789Z,21.33
2018-02-07T01:40:59.239Z,21.43
2018-02-07T01:43:26.777Z,22.60
2018-02-07T01:45:54.216Z,21.47
2018-02-07T01:48:21.691Z,22.10
2018-02-07T01:50:49.145Z,23.43
2018-02-07T01:53:16.618Z,22.97
2018-02-07T01:55:44.067Z,21.97
2018-02-07T01:58:11.631Z,22.93
2018-02-07T02:00:39.086Z,24.00
2018-02-07T02:03:06.562Z,22.67
2018-02-07T02:05:34.022Z,23.90
2018-02-07T02:08:01.491Z,24.70
2018-02-07T02:10:28.940Z,23.87
2018-02-07T02:12:56.406Z,23.97
2018-02-07T02:15:23.858Z,23.23
2018-02-07T02:17:51.307Z,23.60
2018-02-07T02:20:18.786Z,23.97
2018-02-07T02:22:46.239Z,24.23
2018-02-07T02:25:13.719Z,24.60
2018-02-07T02:27:41.175Z,23.93
2018-02-07T02:30:08.660Z,24.40
2018-02-07T02:32:36.903Z,24.33
2018-02-07T02:35:04.477Z,25.57
2018-02-07T02:37:31.930Z,23.50
2018-02-07T02:39:59.391Z,23.87
2018-02-07T02:42:26.839Z,24.90
2018-02-07T02:44:54.319Z,24.60
2018-02-07T02:47:22.571Z,25.90
2018-02-07T02:49:50.042Z,23.17
2018-02-07T02:52:17.490Z,25.17
2018-02-07T02:54:44.959Z,25.50
2018-02-07T02:57:12.414Z,25.37
2018-02-07T02:59:39.875Z,25.10
2018-02-07T03:02:07.345Z,25.10
2018-02-07T03:04:35.575Z,26.53
2018-02-07T03:07:03.070Z,25.00
2018-02-07T03:09:30.507Z,26.37
2018-02-07T03:11:57.987Z,24.20
2018-02-07T03:14:25.459Z,25.90
2018-02-07T03:16:53.674Z,25.07
2018-02-07T03:19:21.130Z,26.10
2018-02-07T03:21:48.614Z,26.57
2018-02-07T03:24:16.092Z,26.20
2018-02-07T03:26:43.556Z,26.90
2018-02-07T03:29:11.773Z,26.27
2018-02-07T03:31:39.227Z,27.73
2018-02-07T03:34:06.687Z,25.07
2018-02-07T03:36:34.148Z,26.90
2018-02-07T03:39:01.601Z,25.83
2018-02-07T03:41:29.062Z,25.03
2018-02-07T03:43:56.529Z,25.87
2018-02-07T03:46:24.031Z,27.27
2018-02-07T03:48:51.487Z,26.80
2018-02-07T03:51:18.979Z,26.77
2018-02-07T03:53:47.230Z,26.93
2018-02-07T03:56:14.678Z,26.60
2018-02-07T03:58:42.135Z,27.10
2018-02-07T04:01:09.647Z,28.63
2018-02-07T04:03:37.087Z,28.30
2018-02-07T04:06:04.531Z,25.83
2018-02-07T04:08:32.771Z,27.10
2018-02-07T04:11:00.256Z,25.80
2018-02-07T04:13:27.734Z,27.17
2018-02-07T04:15:55.951Z,25.80
2018-02-07T04:18:23.426Z,27.50
2018-02-07T04:20:50.899Z,27.03
2018-02-07T04:23:18.356Z,25.93
2018-02-07T04:25:45.815Z,27.13
2018-02-07T04:28:13.271Z,28.43
2018-02-07T04:30:40.717Z,26.43
2018-02-07T04:33:08.195Z,26.30
2018-02-07T04:35:35.662Z,27.07
2018-02-07T04:38:03.881Z,28.53
2018-02-07T04:40:31.355Z,26.23
2018-02-07T04:42:58.843Z,27.00
2018-02-07T04:45:26.319Z,27.20
2018-02-07T04:47:54.578Z,27.40
2018-02-07T04:50:22.085Z,29.10
2018-02-07T04:52:49.567Z,28.40
2018-02-07T04:55:17.054Z,27.97
2018-02-07T04:57:44.519Z,29.10
2018-02-07T05:00:11.951Z,27.13
2018-02-07T05:02:39.424Z,27.10
2018-02-07T05:05:06.871Z,28.80
2018-02-07T05:07:34.347Z,28.17
2018-02-07T05:10:01.783Z,28.43
2018-02-07T05:12:29.362Z,27.43
2018-02-07T05:14:56.814Z,27.53
2018-02-07T05:17:24.356Z,31.03
2018-02-07T05:19:51.806Z,28.40
2018-02-07T05:22:19.279Z,28.00
2018-02-07T05:24:46.752Z,28.37
2018-02-07T05:27:14.213Z,28.30
2018-02-07T05:29:41.668Z,27.63
2018-02-07T05:32:09.143Z,29.23
2018-02-07T05:34:37.387Z,29.47
2018-02-07T05:37:04.860Z,29.90
2018-02-07T05:39:32.327Z,29.40
2018-02-07T05:42:00.595Z,29.33
2018-02-07T05:44:28.139Z,30.73
2018-02-07T05:46:55.610Z,27.90
2018-02-07T05:49:23.066Z,30.60
2018-02-07T05:51:50.527Z,28.50
2018-02-07T05:54:17.990Z,29.37
2018-02-07T05:56:45.447Z,28.87
2018-02-07T05:59:12.916Z,30.83
2018-02-07T06:01:41.152Z,29.33
2018-02-07T06:04:08.625Z,31.20
2018-02-07T06:06:36.082Z,29.20
2018-02-07T06:09:03.543Z,29.37
2018-02-07T06:11:31.149Z,29.70
2018-02-07T06:13:58.606Z,29.57
2018-02-07T06:16:26.078Z,33.27
2018-02-07T06:18:53.551Z,31.63
2018-02-07T06:21:21.109Z,32.10
2018-02-07T06:23:48.573Z,31.93
2018-02-07T06:26:16.044Z,30.70
2018-02-07T06:28:43.616Z,30.87
2018-02-07T06:31:11.060Z,29.37
2018-02-07T06:33:38.531Z,30.33
2018-02-07T06:36:06.005Z,30.47
2018-02-07T06:38:33.535Z,30.37
2018-02-07T06:41:01.024Z,29.00
2018-02-07T06:43:28.476Z,28.47
2018-02-07T06:45:56.023Z,30.50
2018-02-07T06:48:23.496Z,30.53
2018-02-07T06:50:50.954Z,30.90
2018-02-07T06:53:18.441Z,31.30
2018-02-07T06:55:46.687Z,32.00
2018-02-07T06:58:14.145Z,31.70
2018-02-07T07:00:41.798Z,29.70
2018-02-07T07:03:09.255Z,31.77
2018-02-07T07:05:36.739Z,30.53
2018-02-07T07:08:04.986Z,28.53
2018-02-07T07:10:32.460Z,28.80
2018-02-07T07:12:59.919Z,30.80
2018-02-07T07:15:27.384Z,29.50
2018-02-07T07:17:54.861Z,28.47
2018-02-07T07:20:23.095Z,30.47
2018-02-07T07:22:50.546Z,29.77
2018-02-07T07:25:18.048Z,29.70
2018-02-07T07:27:46.280Z,30.10
2018-02-07T07:30:13.763Z,28.73
2018-02-07T07:32:41.217Z,30.50
2018-02-07T07:35:08.679Z,28.67
2018-02-07T07:37:36.301Z,28.57
2018-02-07T07:40:03.756Z,31.23
2018-02-07T07:42:31.231Z,31.00
2018-02-07T07:44:58.687Z,29.63
2018-02-07T07:47:26.172Z,29.83
2018-02-07T07:49:53.663Z,28.23
2018-02-07T07:52:21.907Z,31.27
2018-02-07T07:54:49.352Z,29.73
2018-02-07T07:57:16.830Z,29.70
2018-02-07T07:59:44.305Z,29.30
2018-02-07T08:02:12.523Z,30.03
2018-02-07T08:04:39.979Z,28.17
2018-02-07T08:07:07.436Z,29.87
2018-02-07T08:09:34.885Z,29.43
2018-02-07T08:12:02.372Z,27.33
2018-02-07T08:14:29.833Z,28.90
2018-02-07T08:16:57.289Z,29.30
2018-02-07T08:19:24.768Z,30.17
2018-02-07T08:21:52.243Z,28.40
2018-02-07T08:24:20.502Z,27.43
2018-02-07T08:26:47.963Z,27.43
2018-02-07T08:29:19.489Z,27.10
2018-02-07T08:31:47.791Z,27.40
2018-02-07T08:34:15.504Z,26.40
2018-02-07T08:36:42.964Z,25.63
2018-02-07T08:39:10.425Z,26.10
2018-02-07T08:41:37.884Z,26.93
2018-02-07T08:44:05.363Z,26.40
2018-02-07T08:46:32.844Z,27.97
2018-02-07T08:49:00.302Z,27.23
2018-02-07T08:51:27.763Z,27.03
2018-02-07T08:53:55.231Z,26.43
2018-02-07T08:56:24.218Z,26.97
2018-02-07T08:58:51.742Z,25.93
2018-02-07T09:01:19.192Z,28.37
2018-02-07T09:03:47.400Z,25.87
2018-02-07T09:06:14.868Z,26.00
2018-02-07T09:08:42.323Z,24.67
2018-02-07T09:11:09.780Z,27.37
2018-02-07T09:13:37.239Z,26.00
2018-02-07T09:16:04.892Z,28.63
2018-02-07T09:18:32.367Z,26.70
2018-02-07T09:20:59.803Z,26.67
2018-02-07T09:23:27.283Z,26.40
2018-02-07T09:25:54.787Z,27.77
2018-02-07T09:28:22.270Z,25.80
2018-02-07T09:30:50.036Z,27.30
2018-02-07T09:33:17.526Z,27.60
2018-02-07T09:35:45.762Z,28.40
2018-02-07T09:38:13.258Z,27.13
2018-02-07T09:40:41.487Z,27.00
2018-02-07T09:43:08.989Z,25.37
2018-02-07T09:45:36.525Z,25.30
2018-02-07T09:48:04.106Z,23.87
2018-02-07T09:50:31.550Z,26.50
2018-02-07T09:52:59.029Z,26.10
2018-02-07T09:55:26.578Z,25.87
2018-02-07T09:57:54.059Z,27.30
2018-02-07T10:00:21.528Z,25.20
2018-02-07T10:02:49.776Z,25.80
2018-02-07T10:05:17.232Z,24.60
2018-02-07T10:07:44.705Z,26.63
2018-02-07T10:10:12.347Z,26.27
2018-02-07T10:12:39.841Z,25.13
2018-02-07T10:15:07.282Z,26.43
2018-02-07T10:17:35.514Z,26.67
2018-02-07T10:20:02.962Z,25.00
2018-02-07T10:22:30.562Z,24.07
2018-02-07T10:24:58.032Z,25.90
2018-02-07T10:27:25.490Z,23.93
2018-02-07T10:29:52.948Z,24.97
2018-02-07T10:32:20.400Z,26.10
2018-02-07T10:34:47.851Z,25.07
2018-02-07T10:37:15.331Z,25.67
2018-02-07T10:39:43.559Z,24.17
2018-02-07T10:42:11.016Z,25.97
2018-02-07T10:44:38.529Z,25.67
2018-02-07T10:47:06.982Z,24.63
2018-02-07T10:49:34.462Z,26.43
2018-02-07T10:52:02.020Z,26.30
2018-02-07T10:54:29.470Z,26.40
2018-02-07T10:56:56.984Z,27.63
2018-02-07T10:59:24.455Z,26.33
2018-02-07T11:01:51.904Z,26.60
2018-02-07T11:04:19.391Z,28.17
2018-02-07T11:06:46.862Z,26.63
2018-02-07T11:09:14.299Z,26.83
2018-02-07T11:11:41.806Z,26.80
2018-02-07T11:14:10.045Z,27.90
2018-02-07T11:16:37.614Z,27.07
2018-02-07T11:21:27.811Z,26.33
2018-02-07T11:23:55.286Z,27.10
2018-02-07T11:26:22.833Z,26.70
2018-02-07T11:28:50.423Z,26.03
2018-02-07T11:31:18.636Z,26.27
2018-02-07T11:33:46.116Z,26.60
2018-02-07T11:36:13.571Z,25.63
2018-02-07T11:45:28.153Z,25.53
2018-02-07T11:47:55.714Z,26.27
2018-02-07T11:50:23.431Z,26.20
2018-02-07T11:52:51.460Z,25.80
2018-02-07T11:55:18.910Z,26.37
2018-02-07T11:57:46.397Z,27.73
2018-02-07T12:00:13.855Z,27.93
2018-02-07T12:02:41.344Z,28.73
2018-02-07T12:05:09.656Z,29.93
2018-02-07T12:07:37.132Z,26.90
2018-02-07T12:10:04.631Z,26.60
2018-02-07T12:12:32.136Z,28.00
2018-02-07T12:14:59.571Z,27.73
2018-02-07T12:17:27.049Z,28.23
2018-02-07T12:19:54.532Z,27.33
2018-02-07T12:22:22.272Z,30.43
2018-02-07T12:24:49.755Z,27.50
2018-02-07T12:27:17.266Z,28.80
2018-02-07T12:29:45.478Z,25.97
2018-02-07T12:32:12.923Z,28.57
2018-02-07T12:34:40.395Z,26.87
2018-02-07T12:37:08.177Z,27.17
2018-02-07T12:39:35.655Z,26.47
2018-02-07T12:42:03.111Z,28.00
2018-02-07T12:44:30.648Z,26.07
2018-02-07T12:46:58.148Z,26.53
2018-02-07T12:49:26.386Z,29.60
2018-02-07T12:51:53.844Z,25.07
2018-02-07T12:54:21.286Z,27.20
2018-02-07T12:56:48.751Z,27.00
2018-02-07T12:59:16.269Z,24.87
2018-02-07T13:01:44.500Z,26.17
2018-02-07T13:04:11.952Z,25.87
2018-02-07T13:06:39.406Z,25.73
2018-02-07T13:09:06.895Z,25.33
2018-02-07T13:11:34.352Z,25.83
2018-02-07T13:14:02.081Z,24.50
2018-02-07T13:16:29.536Z,24.50
2018-02-07T13:18:57.111Z,25.47
2018-02-07T13:21:24.562Z,26.67
2018-02-07T13:23:52.039Z,23.80
2018-02-07T13:26:19.552Z,24.47
2018-02-07T13:28:46.970Z,24.30
2018-02-07T13:31:14.450Z,24.90
2018-02-07T13:33:42.706Z,23.73
2018-02-07T13:42:52.499Z,22.20
2018-02-07T13:45:19.965Z,23.23
2018-02-07T13:47:48.199Z,22.93
2018-02-07T13:50:15.663Z,21.00
2018-02-07T13:52:43.131Z,23.00
2018-02-07T13:55:10.639Z,22.93
2018-02-07T13:57:38.864Z,21.43
2018-02-07T14:00:06.299Z,20.97
2018-02-07T14:02:33.766Z,21.40
2018-02-07T14:05:01.242Z,20.10
2018-02-07T14:07:28.698Z,21.10
2018-02-07T14:09:56.238Z,21.43
2018-02-07T14:12:23.766Z,22.30
2018-02-07T14:14:51.302Z,21.47
2018-02-07T14:17:18.759Z,20.97
2018-02-07T14:19:47.003Z,22.40
2018-02-07T14:22:14.443Z,20.50
2018-02-07T14:24:41.928Z,19.53
2018-02-07T14:27:09.391Z,21.33
2018-02-07T14:29:36.842Z,20.13
2018-02-07T14:32:04.305Z,21.50
2018-02-07T14:34:31.765Z,21.17
2018-02-07T14:36:59.256Z,22.13
2018-02-07T14:39:27.471Z,20.87
2018-02-07T14:41:55.167Z,19.97
2018-02-07T14:44:22.630Z,21.00
2018-02-07T14:46:50.086Z,21.33
2018-02-07T14:49:17.738Z,21.00
2018-02-07T14:51:45.516Z,21.93
2018-02-07T14:54:12.971Z,21.87
2018-02-07T14:56:40.431Z,21.00
2018-02-07T14:59:07.890Z,22.13
2018-02-07T15:01:35.350Z,20.73
2018-02-07T15:04:02.860Z,22.70
2018-02-07T15:06:30.336Z,21.00
2018-02-07T15:08:57.797Z,21.47
2018-02-07T15:11:25.243Z,20.17
2018-02-07T15:13:52.747Z,21.80
2018-02-07T15:16:20.203Z,21.50
2018-02-07T15:18:47.810Z,19.00
2018-02-07T15:21:15.264Z,20.40
2018-02-07T15:23:42.747Z,21.30
2018-02-07T15:26:10.951Z,19.40
2018-02-07T15:28:38.407Z,21.10
2018-02-07T15:31:05.883Z,21.63
2018-02-07T15:33:34.120Z,20.20
2018-02-07T15:36:01.574Z,19.83
2018-02-07T15:38:29.048Z,20.47
2018-02-07T15:40:56.539Z,19.30
2018-02-07T15:43:24.811Z,20.47
2018-02-07T15:45:53.042Z,22.90
2018-02-07T15:48:20.515Z,21.00
2018-02-07T15:50:47.993Z,21.00
2018-02-07T15:53:15.450Z,20.50
2018-02-07T15:55:42.961Z,20.80
2018-02-07T15:58:10.433Z,20.73
2018-02-07T16:00:37.887Z,20.33
2018-02-07T16:03:05.355Z,20.90
2018-02-07T16:05:32.822Z,21.47
2018-02-07T16:08:00.585Z,20.10
2018-02-07T16:10:28.035Z,21.33
2018-02-07T16:12:55.539Z,20.80
2018-02-07T16:15:23.752Z,21.37
2018-02-07T16:17:51.364Z,20.67
2018-02-07T16:20:18.832Z,22.70
2018-02-07T16:22:47.063Z,21.97
2018-02-07T16:25:14.526Z,21.37
2018-02-07T16:27:42.049Z,23.17
2018-02-07T16:30:09.518Z,22.33
2018-02-07T16:32:37.002Z,22.50
2018-02-07T16:35:04.458Z,22.63
2018-02-07T16:37:31.929Z,22.80
2018-02-07T16:39:59.434Z,22.03
2018-02-07T16:42:27.680Z,22.17
2018-02-07T16:44:55.227Z,23.47
2018-02-07T16:47:22.699Z,22.77
2018-02-07T16:49:50.143Z,21.23
2018-02-07T16:52:17.695Z,22.90
2018-02-07T16:54:45.159Z,23.00
2018-02-07T16:57:12.631Z,22.30
2018-02-07T16:59:40.247Z,21.83
2018-02-07T17:02:07.744Z,22.90
2018-02-07T17:04:35.448Z,21.53
2018-02-07T17:07:02.938Z,23.43
2018-02-07T17:09:30.641Z,22.63
2018-02-07T17:11:58.109Z,22.37
2018-02-07T17:14:26.342Z,21.57
2018-02-07T17:16:53.782Z,21.53
2018-02-07T17:19:21.289Z,23.73
2018-02-07T17:21:48.776Z,22.20
2018-02-07T17:24:16.983Z,22.17
2018-02-07T17:26:44.443Z,21.90
2018-02-07T17:29:11.917Z,22.00
2018-02-07T17:31:39.371Z,23.50
2018-02-07T17:34:06.857Z,23.10
2018-02-07T17:36:34.302Z,22.03
2018-02-07T17:39:01.755Z,23.37
2018-02-07T17:41:29.251Z,22.73
2018-02-07T17:43:57.481Z,22.20
2018-02-07T17:46:24.951Z,22.67
2018-02-07T17:48:52.435Z,24.53
2018-02-07T17:51:19.938Z,22.47
2018-02-07T17:53:47.367Z,22.40
2018-02-07T17:56:15.625Z,21.00
2018-02-07T17:58:43.092Z,21.73
2018-02-07T18:01:11.327Z,23.70
2018-02-07T18:03:38.903Z,22.90
2018-02-07T18:06:06.362Z,21.60
2018-02-07T18:08:33.827Z,22.20
2018-02-07T18:11:01.295Z,20.70
2018-02-07T18:13:28.847Z,22.30
2018-02-07T18:15:56.334Z,20.63
2018-02-07T18:18:24.547Z,21.00
2018-02-07T18:20:52.007Z,19.73
2018-02-07T18:23:19.471Z,21.00
2018-02-07T18:25:46.963Z,21.57
2018-02-07T18:28:14.431Z,20.77
2018-02-07T18:30:42.887Z,22.37
2018-02-07T18:33:10.345Z,20.37
2018-02-07T18:35:37.830Z,18.90
2018-02-07T18:38:06.063Z,20.50
2018-02-07T18:40:33.519Z,19.90
2018-02-07T18:43:01.012Z,20.80
2018-02-07T18:45:28.479Z,20.90
2018-02-07T18:47:55.931Z,20.57
2018-02-07T18:50:23.379Z,19.60
2018-02-07T18:52:50.839Z,18.67
2018-02-07T18:55:18.283Z,22.67
2018-02-07T18:57:45.759Z,20.33
2018-02-07T19:00:13.211Z,22.10
2018-02-07T19:02:40.758Z,25.40
2018-02-07T19:05:08.247Z,20.73
2018-02-07T19:07:36.513Z,20.23
2018-02-07T19:10:04.044Z,22.70
2018-02-07T19:12:31.535Z,19.80
2018-02-07T19:14:59.011Z,22.83
2018-02-07T19:17:27.273Z,21.20
2018-02-07T19:19:54.727Z,19.17
2018-02-07T19:22:22.186Z,19.87
2018-02-07T19:24:49.652Z,20.70
2018-02-07T19:27:17.897Z,19.60
2018-02-07T19:29:45.375Z,21.37
2018-02-07T19:32:12.884Z,19.60
2018-02-07T19:34:40.344Z,20.80
2018-02-07T19:37:07.851Z,21.07
2018-02-07T19:39:35.306Z,20.40
2018-02-07T19:42:02.773Z,20.00
2018-02-07T19:44:30.227Z,20.73
2018-02-07T19:46:57.675Z,21.70
2018-02-07T19:49:25.129Z,22.03
2018-02-07T19:51:52.599Z,19.87
2018-02-07T19:54:20.071Z,19.67
2018-02-07T19:56:48.329Z,20.47
2018-02-07T19:59:15.800Z,19.90
2018-02-07T20:01:44.047Z,21.10
2018-02-07T20:04:11.512Z,21.00
2018-02-07T20:06:38.982Z,20.37
2018-02-07T20:09:06.531Z,21.43
2018-02-07T20:11:34.007Z,21.20
2018-02-07T20:14:01.460Z,21.27
2018-02-07T20:16:28.892Z,20.50
2018-02-07T20:18:56.385Z,19.67
2018-02-07T20:21:24.639Z,20.00
2018-02-07T20:23:52.122Z,20.10
2018-02-07T20:26:20.455Z,21.70
2018-02-07T20:28:47.953Z,19.87
2018-02-07T20:31:16.211Z,19.60
2018-02-07T20:33:43.691Z,21.17
2018-02-07T20:36:11.947Z,20.10
2018-02-07T20:38:39.395Z,19.07
2018-02-07T20:41:06.871Z,21.07
2018-02-07T20:43:34.569Z,20.63
2018-02-07T20:46:02.058Z,20.43
2018-02-07T20:48:29.647Z,19.60
2018-02-07T20:50:57.099Z,20.17
2018-02-07T20:53:24.573Z,19.97
2018-02-07T20:55:52.054Z,19.97
2018-02-07T20:58:20.276Z,22.20
2018-02-07T21:00:47.733Z,20.70
2018-02-07T21:03:16.235Z,20.53
2018-02-07T21:05:43.773Z,22.10
2018-02-07T21:08:11.265Z,20.77
2018-02-07T21:10:38.734Z,20.20
2018-02-07T21:13:06.959Z,19.80
2018-02-07T21:15:34.524Z,22.77
2018-02-07T21:18:01.975Z,21.77
2018-02-07T21:20:29.451Z,21.10
2018-02-07T21:22:56.996Z,19.97
2018-02-07T21:25:24.446Z,20.97
2018-02-07T21:27:51.914Z,20.57
2018-02-07T21:30:19.379Z,23.60
2018-02-07T21:32:46.830Z,21.53
2018-02-07T21:35:14.315Z,20.87
2018-02-07T21:37:41.786Z,21.63
2018-02-07T21:40:09.255Z,21.90
2018-02-07T21:42:37.495Z,22.67
2018-02-07T21:45:04.989Z,20.90
2018-02-07T21:47:32.410Z,23.10
2018-02-07T21:49:59.907Z,26.20
2018-02-07T21:52:28.135Z,34.10
2018-02-07T21:54:55.603Z,21.10
2018-02-07T21:57:23.075Z,23.60
2018-02-07T21:59:50.535Z,23.07
2018-02-07T22:02:17.999Z,21.80
2018-02-07T22:04:45.490Z,21.83
2018-02-07T22:07:13.722Z,22.17
2018-02-07T22:09:41.299Z,20.90
2018-02-07T22:12:08.759Z,21.70
2018-02-07T22:14:36.214Z,23.00
2018-02-07T22:17:03.727Z,23.30
2018-02-07T22:19:31.192Z,21.57
2018-02-07T22:21:58.682Z,21.80
2018-02-07T22:24:26.151Z,23.03
2018-02-07T22:26:53.618Z,20.70
2018-02-07T22:29:21.100Z,20.77
2018-02-07T22:31:49.335Z,22.90
2018-02-07T22:34:16.822Z,23.57
2018-02-07T22:36:45.055Z,23.30
2018-02-07T22:39:12.529Z,22.20
2018-02-07T22:41:40.066Z,25.13
2018-02-07T22:44:07.563Z,23.90
2018-02-07T22:46:35.069Z,24.47
2018-02-07T22:49:02.540Z,22.10
2018-02-07T22:51:30.021Z,22.57
2018-02-07T22:53:57.474Z,22.00
2018-02-07T22:56:24.946Z,22.77
2018-02-07T22:58:52.403Z,24.07
2018-02-07T23:01:19.890Z,23.43
2018-02-07T23:03:48.151Z,21.90
2018-02-07T23:06:15.655Z,22.60
2018-02-07T23:08:43.343Z,24.57
2018-02-07T23:11:10.810Z,25.40
2018-02-07T23:13:38.279Z,22.47
2018-02-07T23:16:05.745Z,24.90
2018-02-07T23:18:33.206Z,23.70
2018-02-07T23:21:01.442Z,24.10
2018-02-07T23:23:28.923Z,24.20
2018-02-07T23:25:56.391Z,24.20
2018-02-07T23:28:23.852Z,22.93
2018-02-07T23:30:51.310Z,23.80
2018-02-07T23:33:18.771Z,22.80
2018-02-07T23:35:46.236Z,22.10
2018-02-07T23:38:13.742Z,22.97
2018-02-07T23:40:41.207Z,23.50
2018-02-07T23:43:08.671Z,22.60
2018-02-07T23:45:36.143Z,24.30
2018-02-07T23:48:03.618Z,23.03
2018-02-07T23:50:31.083Z,23.20
2018-02-07T23:52:58.619Z,22.77
2018-02-07T23:55:26.089Z,22.80
2018-02-07T23:57:53.602Z,21.90
